Time;durP1;ratioP1;P1;durP2;ratioP2;P2;SDS_P1;SDS_P2;PMS_P1;PMS_P2;Temp;Humidity;BMP_temperature;BMP_pressure;BME280_temperature;BME280_humidity;BME280_pressure;Samples;Min_cycle;Max_cycle;Signal;HPM_P1;HPM_P2
2022/11/12 00:01:10;;;;;;;9.65;4.28;;;;;;;;;;5041706;28;20035;-62
2022/11/12 00:03:35;;;;;;;13.02;5.22;;;;;;;;;;5041626;28;20025;-62
2022/11/12 00:06:01;;;;;;;10.00;4.90;;;;;;;;;;5023848;28;20882;-62
2022/11/12 00:08:26;;;;;;;7.95;4.57;;;;;;;;;;5043006;28;20076;-62
2022/11/12 00:10:52;;;;;;;8.25;4.43;;;;;;;;;;5041131;28;20075;-62
2022/11/12 00:13:17;;;;;;;9.63;4.32;;;;;;;;;;5031300;28;20029;-62
2022/11/12 00:15:45;;;;;;;7.72;4.05;;;;;;;;;;5039331;28;20029;-62
2022/11/12 00:18:10;;;;;;;10.63;4.95;;;;;;;;;;5024642;28;20036;-62
2022/11/12 00:20:36;;;;;;;12.45;5.22;;;;;;;;;;5026553;28;20033;-62
2022/11/12 00:23:01;;;;;;;10.25;4.72;;;;;;;;;;5026767;28;20056;-62
2022/11/12 00:25:27;;;;;;;11.85;5.38;;;;;;;;;;5026956;28;20430;-62
2022/11/12 00:27:52;;;;;;;11.68;5.20;;;;;;;;;;5026181;28;20083;-62
2022/11/12 00:30:18;;;;;;;10.45;5.00;;;;;;;;;;5026981;28;20029;-62
2022/11/12 00:32:43;;;;;;;13.65;4.80;;;;;;;;;;5026427;28;20041;-62
2022/11/12 00:35:11;;;;;;;10.13;4.75;;;;;;;;;;5034848;28;20041;-63
2022/11/12 00:37:36;;;;;;;11.95;5.50;;;;;;;;;;5026983;28;20034;-62
2022/11/12 00:40:02;;;;;;;11.40;5.05;;;;;;;;;;5039287;28;20101;-62
2022/11/12 00:42:27;;;;;;;11.70;5.03;;;;;;;;;;5046949;28;20029;-62
2022/11/12 00:44:53;;;;;;;9.20;4.80;;;;;;;;;;5046721;28;20044;-63
2022/11/12 00:47:18;;;;;;;9.48;5.38;;;;;;;;;;5046744;28;20045;-63
2022/11/12 00:49:43;;;;;;;12.30;5.20;;;;;;;;;;5046059;28;20042;-62
2022/11/12 00:52:09;;;;;;;10.82;4.68;;;;;;;;;;5046455;28;20037;-62
2022/11/12 00:54:34;;;;;;;10.48;5.35;;;;;;;;;;5046724;28;20040;-62
2022/11/12 00:56:59;;;;;;;7.78;4.63;;;;;;;;;;5046366;28;20372;-62
2022/11/12 00:59:25;;;;;;;9.38;4.47;;;;;;;;;;5046498;28;20521;-62
2022/11/12 01:01:50;;;;;;;13.05;4.28;;;;;;;;;;5046635;28;20040;-62
2022/11/12 01:04:15;;;;;;;8.50;4.03;;;;;;;;;;5022972;28;20120;-62
2022/11/12 01:06:41;;;;;;;10.90;5.30;;;;;;;;;;5026244;28;20497;-63
2022/11/12 01:09:07;;;;;;;9.10;4.68;;;;;;;;;;5025967;28;20082;-62
2022/11/12 01:11:33;;;;;;;10.60;5.10;;;;;;;;;;5026905;28;20060;-62
2022/11/12 01:14:02;;;;;;;8.50;4.53;;;;;;;;;;5024684;28;20404;-62
2022/11/12 01:16:33;;;;;;;9.00;4.53;;;;;;;;;;5024513;28;20066;-62
2022/11/12 01:19:00;;;;;;;9.98;4.80;;;;;;;;;;5025849;28;20060;-62
2022/11/12 01:21:28;;;;;;;9.15;4.45;;;;;;;;;;5024514;28;20933;-63
2022/11/12 01:23:53;;;;;;;12.00;4.80;;;;;;;;;;5023203;28;20041;-62
2022/11/12 01:26:20;;;;;;;8.50;4.43;;;;;;;;;;5025550;28;20392;-62
2022/11/12 01:28:46;;;;;;;10.68;4.32;;;;;;;;;;5024053;28;20048;-63
2022/11/12 01:31:15;;;;;;;9.23;4.55;;;;;;;;;;5024748;28;20034;-62
2022/11/12 01:33:42;;;;;;;9.00;4.05;;;;;;;;;;5025708;28;20025;-62
2022/11/12 01:36:08;;;;;;;10.52;4.43;;;;;;;;;;5026182;28;20033;-62
2022/11/12 01:38:35;;;;;;;11.00;4.80;;;;;;;;;;5024516;28;20064;-62
2022/11/12 01:41:01;;;;;;;7.15;3.85;;;;;;;;;;5044850;28;20037;-62
2022/11/12 01:43:26;;;;;;;10.73;4.40;;;;;;;;;;5045427;28;20067;-62
2022/11/12 01:45:52;;;;;;;10.00;3.92;;;;;;;;;;5045599;28;20418;-62
2022/11/12 01:48:38;;;;;;;8.68;4.75;;;;;;;;;;5036938;28;20024;-63
2022/11/12 01:51:06;;;;;;;8.93;4.47;;;;;;;;;;5024596;28;20045;-62
2022/11/12 01:53:36;;;;;;;8.35;4.18;;;;;;;;;;5029044;28;20029;-62
2022/11/12 01:56:04;;;;;;;11.25;4.68;;;;;;;;;;5035328;28;20037;-62
2022/11/12 01:58:30;;;;;;;9.77;5.13;;;;;;;;;;5036932;28;20026;-62
2022/11/12 02:00:56;;;;;;;10.63;4.80;;;;;;;;;;5023803;28;20516;-62
2022/11/12 02:03:23;;;;;;;8.60;4.70;;;;;;;;;;5022721;28;20021;-62
2022/11/12 02:05:55;;;;;;;9.85;4.57;;;;;;;;;;5025873;28;20036;-62
2022/11/12 02:08:22;;;;;;;9.98;5.13;;;;;;;;;;5023679;28;20041;-63
2022/11/12 02:10:48;;;;;;;10.63;4.03;;;;;;;;;;5034220;28;20582;-62
2022/11/12 02:15:57;;;;;;;8.13;4.20;;;;;;;;;;5037453;28;20043;-62
2022/11/12 02:18:23;;;;;;;8.45;4.50;;;;;;;;;;5043404;28;20021;-62
2022/11/12 02:20:56;;;;;;;8.25;4.47;;;;;;;;;;5044842;28;20040;-62
2022/11/12 02:23:22;;;;;;;9.38;4.75;;;;;;;;;;5043473;28;20033;-62
2022/11/12 02:25:47;;;;;;;9.23;4.22;;;;;;;;;;5043512;28;20037;-62
2022/11/12 02:28:12;;;;;;;9.15;4.25;;;;;;;;;;5044490;28;20041;-62
2022/11/12 02:30:39;;;;;;;8.43;4.43;;;;;;;;;;5045122;28;20063;-62
2022/11/12 02:33:05;;;;;;;7.50;4.00;;;;;;;;;;5044461;28;20105;-62
2022/11/12 02:35:31;;;;;;;7.85;4.25;;;;;;;;;;5045237;28;20444;-62
2022/11/12 02:37:56;;;;;;;8.95;4.30;;;;;;;;;;5044497;28;20029;-62
2022/11/12 02:40:21;;;;;;;10.48;4.82;;;;;;;;;;5044538;28;20064;-62
2022/11/12 02:42:47;;;;;;;11.32;4.35;;;;;;;;;;5044786;28;20123;-62
2022/11/12 02:45:13;;;;;;;11.50;4.75;;;;;;;;;;5044716;28;20017;-62
2022/11/12 02:47:38;;;;;;;9.50;4.15;;;;;;;;;;5044542;28;20041;-62
2022/11/12 02:50:04;;;;;;;9.18;4.53;;;;;;;;;;5044714;28;20124;-62
2022/11/12 02:52:29;;;;;;;6.85;3.70;;;;;;;;;;5043905;28;20021;-62
2022/11/12 02:54:54;;;;;;;6.57;3.80;;;;;;;;;;5029432;28;20032;-62
2022/11/12 02:57:20;;;;;;;7.53;4.22;;;;;;;;;;5025235;28;20100;-62
2022/11/12 02:59:45;;;;;;;8.80;4.28;;;;;;;;;;5024597;28;20037;-62
2022/11/12 03:02:10;;;;;;;7.32;3.95;;;;;;;;;;5025660;28;20052;-62
2022/11/12 03:04:35;;;;;;;15.55;4.28;;;;;;;;;;5043055;28;20037;-62
2022/11/12 03:07:01;;;;;;;7.60;4.07;;;;;;;;;;5035605;28;20534;-62
2022/11/12 03:09:26;;;;;;;8.73;4.38;;;;;;;;;;5027564;28;20116;-62
2022/11/12 03:11:51;;;;;;;9.57;4.55;;;;;;;;;;5041039;28;20033;-62
2022/11/12 03:14:17;;;;;;;9.85;4.80;;;;;;;;;;5048273;28;20040;-62
2022/11/12 03:16:42;;;;;;;10.88;4.28;;;;;;;;;;5043764;28;20336;-62
2022/11/12 03:19:07;;;;;;;11.75;4.28;;;;;;;;;;5040091;28;20022;-62
2022/11/12 03:21:33;;;;;;;8.30;3.95;;;;;;;;;;5048473;28;20446;-62
2022/11/12 03:24:00;;;;;;;11.43;4.45;;;;;;;;;;5042516;28;20071;-62
2022/11/12 03:26:25;;;;;;;9.48;4.35;;;;;;;;;;5048128;28;20036;-62
2022/11/12 03:28:50;;;;;;;8.13;4.25;;;;;;;;;;5046470;28;20025;-62
2022/11/12 03:31:16;;;;;;;8.45;3.78;;;;;;;;;;5048175;28;20029;-62
2022/11/12 03:33:41;;;;;;;9.98;3.85;;;;;;;;;;5047725;28;20048;-62
2022/11/12 03:36:06;;;;;;;7.97;3.80;;;;;;;;;;5042459;28;20044;-62
2022/11/12 03:38:32;;;;;;;8.85;3.78;;;;;;;;;;5046587;28;20101;-62
2022/11/12 03:40:57;;;;;;;7.60;3.92;;;;;;;;;;5048082;28;20060;-62
2022/11/12 03:43:22;;;;;;;8.70;3.90;;;;;;;;;;5046963;28;20033;-62
2022/11/12 03:45:48;;;;;;;11.15;3.90;;;;;;;;;;5048215;28;20049;-62
2022/11/12 03:48:13;;;;;;;8.90;4.00;;;;;;;;;;5048571;28;20075;-63
2022/11/12 03:50:38;;;;;;;7.75;3.83;;;;;;;;;;5031885;28;20877;-62
2022/11/12 03:53:04;;;;;;;7.50;3.72;;;;;;;;;;5027780;28;20072;-62
2022/11/12 03:55:29;;;;;;;6.50;3.67;;;;;;;;;;5026687;28;20036;-62
2022/11/12 03:57:57;;;;;;;7.35;3.40;;;;;;;;;;5030845;28;20016;-62
2022/11/12 04:00:24;;;;;;;5.82;3.13;;;;;;;;;;5038445;28;20402;-62
2022/11/12 04:02:50;;;;;;;7.90;3.50;;;;;;;;;;5047141;28;20418;-62
2022/11/12 04:10:51;;;;;;;4.13;2.45;;;;;;;;;;5052759;28;20050;-62
2022/11/12 04:13:28;;;;;;;3.92;2.55;;;;;;;;;;5067136;28;20564;-62
2022/11/12 04:21:54;;;;;;;6.57;2.95;;;;;;;;;;5027659;28;20074;-62
2022/11/12 04:27:22;;;;;;;7.35;3.17;;;;;;;;;;5047260;28;20032;-62
2022/11/12 04:32:35;;;;;;;8.88;3.17;;;;;;;;;;5066905;28;20039;-62
2022/11/12 04:35:00;;;;;;;5.30;2.90;;;;;;;;;;5066689;28;20170;-62
2022/11/12 04:37:28;;;;;;;6.90;3.05;;;;;;;;;;5066462;28;20116;-62
2022/11/12 04:39:53;;;;;;;8.45;3.45;;;;;;;;;;5053342;28;20025;-62
2022/11/12 04:45:05;;;;;;;;;;;;;;;;;;5046117;28;20608;-62
2022/11/12 04:47:34;;;;;;;5.20;2.80;;;;;;;;;;5046532;28;19920;-62
2022/11/12 04:50:02;;;;;;;6.22;3.50;;;;;;;;;;5041399;28;20055;-62
2022/11/12 04:52:28;;;;;;;5.95;3.17;;;;;;;;;;5030162;28;20045;-62
2022/11/12 04:54:54;;;;;;;5.60;3.08;;;;;;;;;;5044075;28;20086;-62
2022/11/12 04:57:20;;;;;;;7.53;3.45;;;;;;;;;;5045437;28;20104;-62
2022/11/12 04:59:46;;;;;;;5.68;3.13;;;;;;;;;;5046076;28;20120;-62
2022/11/12 05:02:11;;;;;;;8.65;3.70;;;;;;;;;;5046305;28;20032;-62
2022/11/12 05:04:37;;;;;;;7.32;3.80;;;;;;;;;;5033861;28;20086;-62
2022/11/12 05:07:02;;;;;;;5.85;3.45;;;;;;;;;;5044632;28;20094;-62
2022/11/12 05:09:28;;;;;;;8.13;3.80;;;;;;;;;;5046725;28;20448;-62
2022/11/12 05:11:57;;;;;;;7.00;3.53;;;;;;;;;;5035407;28;20033;-62
2022/11/12 05:14:23;;;;;;;9.88;3.45;;;;;;;;;;5036944;28;20059;-62
2022/11/12 05:16:49;;;;;;;8.13;3.53;;;;;;;;;;5045966;28;20029;-62
2022/11/12 05:19:14;;;;;;;8.32;4.20;;;;;;;;;;5045558;28;20092;-62
2022/11/12 05:24:23;;;;;;;;;;;;;;;;;;5045798;28;20532;-62
2022/11/12 05:26:48;;;;;;;9.73;3.97;;;;;;;;;;5044826;28;20562;-62
2022/11/12 05:29:14;;;;;;;10.10;4.43;;;;;;;;;;5043724;28;20048;-62
2022/11/12 05:31:39;;;;;;;8.25;4.00;;;;;;;;;;5045955;28;20076;-62
2022/11/12 05:34:04;;;;;;;7.85;3.65;;;;;;;;;;5040152;28;20036;-63
2022/11/12 05:36:30;;;;;;;9.75;4.25;;;;;;;;;;5034430;28;20037;-62
2022/11/12 05:38:55;;;;;;;8.10;3.78;;;;;;;;;;5042383;28;20131;-62
2022/11/12 05:41:20;;;;;;;10.40;4.38;;;;;;;;;;5045413;28;20509;-63
2022/11/12 05:43:46;;;;;;;5.40;3.03;;;;;;;;;;5045964;28;20029;-62
2022/11/12 05:46:11;;;;;;;7.00;3.22;;;;;;;;;;5044703;28;20043;-62
2022/11/12 05:48:36;;;;;;;5.22;2.95;;;;;;;;;;5046232;28;20020;-62
2022/11/12 05:51:02;;;;;;;6.30;3.40;;;;;;;;;;5034417;28;20144;-62
2022/11/12 05:53:27;;;;;;;7.72;3.95;;;;;;;;;;5023826;28;21022;-62
2022/11/12 05:55:53;;;;;;;6.80;2.92;;;;;;;;;;5024453;28;20427;-62
2022/11/12 05:58:18;;;;;;;7.80;3.38;;;;;;;;;;5025753;28;20120;-62
2022/11/12 06:00:43;;;;;;;6.25;2.83;;;;;;;;;;5025048;28;20446;-62
2022/11/12 06:03:10;;;;;;;7.45;2.83;;;;;;;;;;5025672;28;20071;-63
2022/11/12 06:05:37;;;;;;;4.75;2.70;;;;;;;;;;5025251;28;20087;-62
2022/11/12 06:08:04;;;;;;;7.57;3.50;;;;;;;;;;5025069;28;20037;-62
2022/11/12 06:10:30;;;;;;;10.90;3.58;;;;;;;;;;5028155;28;20375;-62
2022/11/12 06:12:56;;;;;;;6.95;3.28;;;;;;;;;;5037260;28;20043;-62
2022/11/12 06:15:21;;;;;;;7.18;3.00;;;;;;;;;;5032907;28;20579;-62
2022/11/12 06:17:46;;;;;;;6.80;3.00;;;;;;;;;;5025175;28;20091;-62
2022/11/12 06:20:12;;;;;;;8.10;3.63;;;;;;;;;;5025185;28;20064;-62
2022/11/12 06:22:37;;;;;;;6.45;3.17;;;;;;;;;;5028938;28;20029;-62
2022/11/12 06:25:04;;;;;;;8.88;4.13;;;;;;;;;;5040233;28;20569;-63
2022/11/12 06:27:30;;;;;;;9.63;5.05;;;;;;;;;;5043817;28;20576;-62
2022/11/12 06:29:55;;;;;;;10.57;5.22;;;;;;;;;;5044376;28;20028;-62
2022/11/12 06:32:21;;;;;;;11.80;4.82;;;;;;;;;;5042954;28;20463;-62
2022/11/12 06:34:46;;;;;;;11.05;4.53;;;;;;;;;;5044736;28;20091;-62
2022/11/12 06:37:11;;;;;;;10.85;4.30;;;;;;;;;;5043061;28;20055;-62
2022/11/12 06:39:37;;;;;;;9.25;4.28;;;;;;;;;;5035783;28;20021;-62
2022/11/12 06:42:02;;;;;;;8.18;4.25;;;;;;;;;;5040265;28;20033;-62
2022/11/12 06:44:28;;;;;;;7.85;4.43;;;;;;;;;;5044342;28;20037;-62
2022/11/12 06:46:53;;;;;;;8.55;4.22;;;;;;;;;;5044637;28;20451;-62
2022/11/12 06:49:19;;;;;;;6.25;3.42;;;;;;;;;;5044304;28;20095;-62
2022/11/12 06:51:45;;;;;;;7.28;3.97;;;;;;;;;;5044020;28;20044;-62
2022/11/12 06:54:10;;;;;;;8.23;4.07;;;;;;;;;;5044849;28;20028;-62
2022/11/12 06:56:35;;;;;;;10.35;3.85;;;;;;;;;;5044667;28;20087;-62
2022/11/12 06:59:00;;;;;;;7.22;3.88;;;;;;;;;;5042614;28;20091;-62
2022/11/12 07:01:26;;;;;;;9.20;3.63;;;;;;;;;;5025984;28;20030;-63
2022/11/12 07:03:52;;;;;;;8.48;4.35;;;;;;;;;;5024650;28;20025;-62
2022/11/12 07:06:19;;;;;;;8.70;4.07;;;;;;;;;;5024941;28;20481;-62
2022/11/12 07:08:49;;;;;;;8.90;4.65;;;;;;;;;;5025030;28;20077;-62
2022/11/12 07:11:15;;;;;;;8.70;3.97;;;;;;;;;;5033243;28;20060;-62
2022/11/12 07:13:43;;;;;;;8.57;3.88;;;;;;;;;;5061426;28;20035;-62
2022/11/12 07:16:09;;;;;;;7.97;3.65;;;;;;;;;;5084379;28;20028;-62
2022/11/12 07:18:36;;;;;;;10.98;4.78;;;;;;;;;;5084841;28;20031;-62
2022/11/12 07:21:05;;;;;;;8.38;4.47;;;;;;;;;;5082053;28;20537;-62
2022/11/12 07:23:32;;;;;;;10.23;4.35;;;;;;;;;;5029034;28;20119;-62
2022/11/12 07:26:01;;;;;;;10.60;5.18;;;;;;;;;;5024223;28;20414;-62
2022/11/12 07:28:27;;;;;;;16.65;5.80;;;;;;;;;;5024008;28;20037;-62
2022/11/12 07:31:01;;;;;;;10.77;5.55;;;;;;;;;;5024323;28;20033;-62
2022/11/12 07:33:27;;;;;;;11.77;4.57;;;;;;;;;;5023265;28;20026;-62
2022/11/12 07:36:01;;;;;;;9.32;5.28;;;;;;;;;;5022752;28;20041;-62
2022/11/12 07:38:28;;;;;;;9.65;4.10;;;;;;;;;;5024002;28;20103;-62
2022/11/12 07:41:06;;;;;;;7.30;4.05;;;;;;;;;;5034508;28;20037;-62
2022/11/12 07:43:32;;;;;;;10.02;4.93;;;;;;;;;;5025161;28;20036;-62
2022/11/12 07:46:03;;;;;;;6.82;3.50;;;;;;;;;;5025212;28;20057;-63
2022/11/12 07:48:29;;;;;;;6.93;3.70;;;;;;;;;;5042721;28;20033;-62
2022/11/12 07:51:02;;;;;;;8.27;4.03;;;;;;;;;;5028839;28;20034;-62
2022/11/12 07:53:28;;;;;;;9.43;4.50;;;;;;;;;;5031610;28;20037;-62
2022/11/12 07:55:58;;;;;;;9.73;5.10;;;;;;;;;;5047073;28;20029;-63
2022/11/12 07:58:24;;;;;;;10.90;4.57;;;;;;;;;;5047329;28;20033;-62
2022/11/12 08:00:50;;;;;;;7.25;3.92;;;;;;;;;;5047786;28;20021;-62
2022/11/12 08:03:16;;;;;;;8.50;4.70;;;;;;;;;;5047859;28;20025;-62
2022/11/12 08:05:42;;;;;;;8.98;3.70;;;;;;;;;;5034719;28;20029;-62
2022/11/12 08:08:07;;;;;;;9.05;4.03;;;;;;;;;;5041893;28;20040;-62
2022/11/12 08:10:32;;;;;;;9.63;4.25;;;;;;;;;;5035660;28;20196;-63
2022/11/12 08:12:57;;;;;;;9.18;4.55;;;;;;;;;;5035573;28;20070;-62
2022/11/12 08:15:23;;;;;;;9.35;4.82;;;;;;;;;;5043408;28;20051;-62
2022/11/12 08:17:48;;;;;;;9.70;4.63;;;;;;;;;;5031969;28;20029;-62
2022/11/12 08:20:13;;;;;;;10.60;5.28;;;;;;;;;;5025931;28;20482;-62
2022/11/12 08:22:39;;;;;;;9.10;4.30;;;;;;;;;;5026907;28;20042;-62
2022/11/12 08:25:06;;;;;;;12.90;4.93;;;;;;;;;;5026496;28;20029;-62
2022/11/12 08:27:31;;;;;;;12.07;5.25;;;;;;;;;;5026907;28;20827;-63
2022/11/12 08:29:57;;;;;;;10.55;4.95;;;;;;;;;;5026097;28;20034;-62
2022/11/12 08:32:22;;;;;;;12.30;5.53;;;;;;;;;;5026067;28;20033;-62
2022/11/12 08:34:47;;;;;;;16.92;5.18;;;;;;;;;;5026455;28;20041;-62
2022/11/12 08:37:13;;;;;;;10.65;4.20;;;;;;;;;;5025867;28;20033;-62
2022/11/12 08:39:38;;;;;;;8.10;3.47;;;;;;;;;;5035903;28;20017;-62
2022/11/12 08:42:04;;;;;;;7.47;4.10;;;;;;;;;;5044427;28;20033;-62
2022/11/12 08:44:29;;;;;;;6.68;3.45;;;;;;;;;;5034662;28;20506;-62
2022/11/12 08:46:54;;;;;;;7.15;3.38;;;;;;;;;;5026159;28;20044;-62
2022/11/12 08:49:20;;;;;;;10.18;3.38;;;;;;;;;;5026324;28;20063;-62
2022/11/12 08:51:45;;;;;;;8.15;3.17;;;;;;;;;;5027083;28;20030;-62
2022/11/12 08:54:10;;;;;;;6.95;3.78;;;;;;;;;;5025966;28;20025;-62
2022/11/12 08:56:35;;;;;;;8.73;3.40;;;;;;;;;;5024161;28;20057;-62
2022/11/12 08:59:01;;;;;;;5.25;3.35;;;;;;;;;;5029865;28;20037;-62
2022/11/12 09:01:26;;;;;;;7.30;4.00;;;;;;;;;;5024059;28;20071;-62
2022/11/12 09:03:51;;;;;;;6.00;2.80;;;;;;;;;;5026204;28;20049;-62
2022/11/12 09:06:17;;;;;;;7.53;3.53;;;;;;;;;;5025378;28;20555;-62
2022/11/12 09:08:42;;;;;;;8.25;4.18;;;;;;;;;;5024864;28;20459;-62
2022/11/12 09:11:07;;;;;;;9.65;4.65;;;;;;;;;;5040987;28;20060;-62
2022/11/12 09:13:33;;;;;;;6.22;3.83;;;;;;;;;;5064196;28;20035;-62
2022/11/12 09:16:04;;;;;;;9.38;4.05;;;;;;;;;;5063834;28;20020;-62
2022/11/12 09:18:30;;;;;;;6.13;3.40;;;;;;;;;;5065981;28;20039;-63
2022/11/12 09:21:07;;;;;;;4.97;2.75;;;;;;;;;;5064620;28;20121;-62
2022/11/12 09:23:34;;;;;;;8.95;4.22;;;;;;;;;;5046798;28;20061;-62
2022/11/12 09:26:00;;;;;;;7.88;3.58;;;;;;;;;;5016355;28;20052;-62
2022/11/12 09:28:25;;;;;;;8.50;3.75;;;;;;;;;;5027777;28;20119;-62
2022/11/12 09:30:52;;;;;;;9.35;3.97;;;;;;;;;;5013062;28;20029;-62
2022/11/12 09:33:21;;;;;;;8.55;4.28;;;;;;;;;;5045180;28;20387;-62
2022/11/12 09:35:47;;;;;;;8.40;4.93;;;;;;;;;;5043179;28;20582;-62
2022/11/12 09:38:14;;;;;;;9.50;4.65;;;;;;;;;;5045963;28;20041;-63
2022/11/12 09:40:51;;;;;;;7.75;3.38;;;;;;;;;;5064515;28;20029;-62
2022/11/12 09:43:47;;;;;;;9.38;4.05;;;;;;;;;;5064700;28;20059;-63
2022/11/12 09:46:48;;;;;;;8.35;3.97;;;;;;;;;;5063071;28;20123;-62
2022/11/12 09:49:22;;;;;;;10.38;4.10;;;;;;;;;;5064602;28;20127;-63
2022/11/12 09:52:04;;;;;;;8.88;4.45;;;;;;;;;;5064942;28;20024;-63
2022/11/12 09:54:31;;;;;;;8.25;4.32;;;;;;;;;;5065945;28;20089;-63
2022/11/12 09:56:57;;;;;;;6.75;4.45;;;;;;;;;;5062752;28;20063;-63
2022/11/12 09:59:28;;;;;;;11.20;4.93;;;;;;;;;;5046184;28;20903;-62
2022/11/12 10:01:57;;;;;;;7.50;4.78;;;;;;;;;;5052642;28;20041;-62
2022/11/12 10:04:44;;;;;;;8.85;4.30;;;;;;;;;;5060206;28;20041;-63
2022/11/12 10:07:31;;;;;;;10.05;4.50;;;;;;;;;;5054814;28;20043;-63
2022/11/12 10:10:17;;;;;;;10.13;4.70;;;;;;;;;;5062248;28;20679;-63
2022/11/12 10:13:05;;;;;;;8.95;4.80;;;;;;;;;;5044401;28;20074;-63
2022/11/12 10:19:19;;;;;;;8.68;4.80;;;;;;;;;;5045224;28;20122;-63
2022/11/12 10:21:44;;;;;;;9.88;4.53;;;;;;;;;;5044990;28;20021;-63
2022/11/12 10:24:10;;;;;;;8.38;4.88;;;;;;;;;;5044677;28;20032;-63
2022/11/12 10:26:39;;;;;;;8.23;4.25;;;;;;;;;;5044925;28;20041;-63
2022/11/12 10:29:10;;;;;;;11.75;5.03;;;;;;;;;;5043501;28;20744;-63
2022/11/12 10:31:36;;;;;;;11.43;5.63;;;;;;;;;;5045021;28;20064;-63
2022/11/12 10:34:14;;;;;;;8.55;4.38;;;;;;;;;;5045035;28;20052;-63
2022/11/12 10:36:47;;;;;;;10.45;4.95;;;;;;;;;;5049822;28;20358;-63
2022/11/12 10:39:36;;;;;;;9.55;4.63;;;;;;;;;;5053420;28;20051;-63
2022/11/12 10:42:11;;;;;;;9.68;4.95;;;;;;;;;;5064756;28;20056;-63
2022/11/12 10:44:38;;;;;;;8.70;4.75;;;;;;;;;;5064745;28;20094;-63
2022/11/12 10:47:18;;;;;;;8.80;4.60;;;;;;;;;;5063724;28;20064;-63
2022/11/12 10:50:16;;;;;;;10.85;5.00;;;;;;;;;;5058360;28;20525;-63
2022/11/12 10:52:54;;;;;;;8.05;4.13;;;;;;;;;;5059620;28;20094;-63
2022/11/12 10:55:31;;;;;;;9.77;4.50;;;;;;;;;;5063278;28;20039;-63
2022/11/12 10:58:13;;;;;;;10.75;5.05;;;;;;;;;;5049444;28;20021;-63
2022/11/12 11:01:06;;;;;;;10.85;4.25;;;;;;;;;;5042771;28;20029;-63
2022/11/12 11:03:43;;;;;;;11.68;5.40;;;;;;;;;;5045558;28;20046;-63
2022/11/12 11:06:14;;;;;;;8.80;4.43;;;;;;;;;;5052304;28;20536;-63
2022/11/12 11:08:45;;;;;;;10.25;5.32;;;;;;;;;;5051979;28;20041;-63
2022/11/12 11:11:24;;;;;;;13.50;5.20;;;;;;;;;;5061033;28;20191;-63
2022/11/12 11:13:53;;;;;;;8.77;4.72;;;;;;;;;;5060927;28;20113;-63
2022/11/12 11:16:20;;;;;;;9.30;4.57;;;;;;;;;;5045838;28;20037;-63
2022/11/12 11:18:51;;;;;;;10.73;5.18;;;;;;;;;;5042796;28;20025;-63
2022/11/12 11:21:19;;;;;;;9.85;4.82;;;;;;;;;;5044990;28;20086;-63
2022/11/12 11:23:50;;;;;;;8.82;4.25;;;;;;;;;;5044621;28;20838;-63
2022/11/12 11:26:25;;;;;;;9.23;4.70;;;;;;;;;;5057165;28;20151;-63
2022/11/12 11:29:14;;;;;;;10.45;4.78;;;;;;;;;;5067317;28;20057;-63
2022/11/12 11:31:54;;;;;;;10.90;5.05;;;;;;;;;;5055813;28;20562;-63
2022/11/12 11:34:52;;;;;;;8.68;4.68;;;;;;;;;;5051804;28;20055;-63
2022/11/12 11:37:22;;;;;;;10.60;4.63;;;;;;;;;;5047677;28;20029;-63
2022/11/12 11:39:58;;;;;;;8.57;4.75;;;;;;;;;;5058738;28;20441;-63
2022/11/12 11:42:35;;;;;;;8.25;4.70;;;;;;;;;;5068245;28;20032;-63
2022/11/12 11:45:28;;;;;;;8.20;4.85;;;;;;;;;;5067294;28;20477;-63
2022/11/12 11:48:05;;;;;;;9.73;5.03;;;;;;;;;;5067000;28;20048;-63
2022/11/12 11:50:34;;;;;;;11.07;5.75;;;;;;;;;;5066814;28;20552;-63
2022/11/12 11:53:11;;;;;;;8.85;4.75;;;;;;;;;;5066974;28;20518;-63
2022/11/12 11:55:52;;;;;;;9.40;5.20;;;;;;;;;;5058204;28;20147;-63
2022/11/12 11:58:59;;;;;;;10.50;5.10;;;;;;;;;;5040749;28;20095;-63
2022/11/12 12:01:33;;;;;;;8.90;4.88;;;;;;;;;;5015810;28;20135;-63
2022/11/12 12:04:02;;;;;;;7.85;4.55;;;;;;;;;;5045798;28;20047;-64
2022/11/12 12:06:39;;;;;;;10.60;5.15;;;;;;;;;;5049273;28;20500;-63
2022/11/12 12:09:25;;;;;;;10.10;5.20;;;;;;;;;;5052482;28;20064;-63
2022/11/12 12:11:59;;;;;;;9.82;5.03;;;;;;;;;;5042399;28;20136;-63
2022/11/12 12:14:48;;;;;;;9.68;5.22;;;;;;;;;;5046608;28;20726;-63
2022/11/12 12:17:42;;;;;;;7.55;4.60;;;;;;;;;;5046801;28;20032;-64
2022/11/12 12:20:36;;;;;;;7.72;4.60;;;;;;;;;;5046126;28;20068;-63
2022/11/12 12:23:09;;;;;;;9.50;4.30;;;;;;;;;;5037231;28;20043;-63
2022/11/12 12:25:39;;;;;;;8.30;4.85;;;;;;;;;;5050723;28;20067;-63
2022/11/12 12:28:14;;;;;;;8.93;4.90;;;;;;;;;;5050251;28;21354;-64
2022/11/12 12:30:46;;;;;;;10.70;4.93;;;;;;;;;;5048716;28;20391;-64
2022/11/12 12:33:38;;;;;;;10.38;4.38;;;;;;;;;;5049322;28;20422;-64
2022/11/12 12:36:11;;;;;;;8.35;4.53;;;;;;;;;;5058018;28;20051;-63
2022/11/12 12:38:40;;;;;;;8.25;4.68;;;;;;;;;;5066275;28;20045;-63
2022/11/12 12:41:15;;;;;;;8.23;4.82;;;;;;;;;;5066494;28;20055;-63
2022/11/12 12:43:46;;;;;;;8.65;4.80;;;;;;;;;;5064885;28;20153;-63
2022/11/12 12:46:15;;;;;;;8.93;4.65;;;;;;;;;;5066224;28;20074;-63
2022/11/12 12:48:42;;;;;;;8.05;4.93;;;;;;;;;;5067029;28;20474;-63
2022/11/12 12:51:08;;;;;;;8.25;4.50;;;;;;;;;;5066825;28;20076;-63
2022/11/12 12:53:35;;;;;;;10.73;4.82;;;;;;;;;;5066647;28;20067;-63
2022/11/12 12:56:13;;;;;;;8.98;5.07;;;;;;;;;;5066401;28;20036;-64
2022/11/12 12:58:45;;;;;;;8.05;4.28;;;;;;;;;;5067037;28;20577;-63
2022/11/12 13:01:20;;;;;;;13.02;4.68;;;;;;;;;;5066563;28;20044;-64
2022/11/12 13:03:45;;;;;;;7.13;3.97;;;;;;;;;;5065440;28;20035;-64
2022/11/12 13:06:31;;;;;;;7.03;4.10;;;;;;;;;;5065688;28;20113;-64
2022/11/12 13:09:11;;;;;;;8.73;4.13;;;;;;;;;;5065135;28;20048;-63
2022/11/12 13:14:29;;;;;;;6.97;3.65;;;;;;;;;;5066171;28;20059;-63
2022/11/12 13:16:55;;;;;;;8.40;3.97;;;;;;;;;;5066372;28;20059;-63
2022/11/12 13:19:28;;;;;;;8.30;4.10;;;;;;;;;;5066217;28;20506;-64
2022/11/12 13:22:18;;;;;;;7.15;4.07;;;;;;;;;;5066380;28;20120;-64
2022/11/12 13:25:11;;;;;;;5.95;3.50;;;;;;;;;;5064632;28;20028;-64
2022/11/12 13:27:41;;;;;;;7.83;3.87;;;;;;;;;;5065974;28;20029;-64
2022/11/12 13:30:30;;;;;;;9.55;3.75;;;;;;;;;;5064024;28;20521;-64
2022/11/12 13:32:57;;;;;;;7.97;4.10;;;;;;;;;;5063505;28;20056;-64
2022/11/12 13:35:27;;;;;;;6.35;3.85;;;;;;;;;;5065391;28;20887;-64
2022/11/12 13:37:54;;;;;;;10.63;3.80;;;;;;;;;;5065394;28;20059;-64
2022/11/12 13:40:28;;;;;;;9.77;3.95;;;;;;;;;;5065377;28;20047;-64
2022/11/12 13:42:55;;;;;;;8.27;4.63;;;;;;;;;;5064939;28;20059;-64
2022/11/12 13:45:25;;;;;;;11.98;4.28;;;;;;;;;;5065329;28;20024;-63
2022/11/12 13:47:51;;;;;;;8.20;4.13;;;;;;;;;;5056272;28;20071;-64
2022/11/12 13:50:21;;;;;;;10.32;4.35;;;;;;;;;;5046722;28;20525;-63
2022/11/12 13:52:47;;;;;;;8.73;3.65;;;;;;;;;;5054460;28;20755;-64
2022/11/12 13:55:16;;;;;;;9.07;4.10;;;;;;;;;;5065003;28;20036;-64
2022/11/12 13:57:54;;;;;;;7.32;4.35;;;;;;;;;;5057330;28;20109;-63
2022/11/12 14:00:27;;;;;;;10.30;4.15;;;;;;;;;;5065372;28;20024;-64
2022/11/12 14:03:04;;;;;;;8.77;4.85;;;;;;;;;;5063780;28;20060;-64
2022/11/12 14:05:34;;;;;;;9.70;4.65;;;;;;;;;;5055348;28;20037;-64
2022/11/12 14:08:12;;;;;;;11.57;5.53;;;;;;;;;;5064302;28;20050;-63
2022/11/12 14:10:47;;;;;;;13.25;5.45;;;;;;;;;;5059873;28;20040;-64
2022/11/12 14:13:33;;;;;;;11.43;5.00;;;;;;;;;;5043445;28;20044;-64
2022/11/12 14:16:17;;;;;;;11.60;5.22;;;;;;;;;;5044896;28;20033;-64
2022/11/12 14:19:06;;;;;;;12.63;5.45;;;;;;;;;;5044579;28;20032;-63
2022/11/12 14:21:32;;;;;;;11.65;5.03;;;;;;;;;;5065122;28;20109;-64
2022/11/12 14:24:00;;;;;;;11.38;5.25;;;;;;;;;;5057137;28;20094;-63
2022/11/12 14:26:41;;;;;;;12.65;5.00;;;;;;;;;;5060872;28;20040;-63
2022/11/12 14:29:15;;;;;;;10.60;4.57;;;;;;;;;;5060146;28;20045;-64
2022/11/12 14:31:41;;;;;;;12.27;5.22;;;;;;;;;;5043190;28;20064;-63
2022/11/12 14:34:21;;;;;;;14.00;5.22;;;;;;;;;;5043089;28;20403;-64
2022/11/12 14:36:48;;;;;;;10.40;5.40;;;;;;;;;;5053590;28;20036;-64
2022/11/12 14:39:13;;;;;;;8.85;4.95;;;;;;;;;;5063291;28;20498;-64
2022/11/12 14:41:41;;;;;;;13.13;5.82;;;;;;;;;;5062551;28;20090;-64
2022/11/12 14:44:25;;;;;;;15.88;5.90;;;;;;;;;;5063355;28;20040;-64
2022/11/12 14:46:53;;;;;;;12.98;6.72;;;;;;;;;;5063004;28;20102;-63
2022/11/12 14:49:39;;;;;;;22.70;9.68;;;;;;;;;;5062612;28;20048;-64
2022/11/12 14:52:14;;;;;;;10.25;4.97;;;;;;;;;;5062545;28;20040;-63
2022/11/12 14:54:56;;;;;;;9.60;5.03;;;;;;;;;;5063986;28;20025;-63
2022/11/12 14:57:31;;;;;;;11.77;5.05;;;;;;;;;;5060251;28;20041;-63
2022/11/12 14:59:57;;;;;;;11.55;5.68;;;;;;;;;;5062868;28;20071;-63
2022/11/12 15:02:31;;;;;;;10.75;5.20;;;;;;;;;;5061595;28;20036;-63
2022/11/12 15:05:02;;;;;;;12.68;6.05;;;;;;;;;;5062987;28;20040;-63
2022/11/12 15:07:29;;;;;;;13.82;6.68;;;;;;;;;;5063098;28;20037;-63
2022/11/12 15:09:55;;;;;;;14.20;7.30;;;;;;;;;;5057055;28;20025;-63
2022/11/12 15:12:27;;;;;;;11.25;5.95;;;;;;;;;;5059162;28;20021;-63
2022/11/12 15:15:02;;;;;;;11.45;6.50;;;;;;;;;;5063763;28;20437;-63
2022/11/12 15:17:31;;;;;;;9.00;5.38;;;;;;;;;;5062984;28;20032;-63
2022/11/12 15:20:03;;;;;;;10.05;5.95;;;;;;;;;;5063466;28;20064;-63
2022/11/12 15:22:29;;;;;;;10.15;6.03;;;;;;;;;;5050622;28;20041;-63
2022/11/12 15:24:54;;;;;;;8.63;5.30;;;;;;;;;;5063165;28;20039;-63